Time;durP1;ratioP1;P1;durP2;ratioP2;P2;SDS_P1;SDS_P2;PMS_P1;PMS_P2;Temp;Humidity;BMP_temperature;BMP_pressure;BME280_temperature;BME280_humidity;BME280_pressure;Samples;Min_cycle;Max_cycle;Signal;HPM_P1;HPM_P2
2022/06/07 00:01:49;;;;;;;;;;;;;;;18.85;70.37;94659.31;4176102;28;20711;-53
2022/06/07 00:03:50;;;;;;;12.25;6.38;;;;;;;18.85;70.20;94654.00;4159613;28;20006;-56
2022/06/07 00:05:52;;;;;;;16.15;6.38;;;;;;;18.89;70.55;94657.88;4159206;28;20059;-56
2022/06/07 00:07:54;;;;;;;7.88;5.97;;;;;;;18.63;70.71;94657.72;4159537;28;20058;-56
2022/06/07 00:09:56;;;;;;;8.02;6.38;;;;;;;18.45;71.51;94657.56;4174595;28;20060;-61
2022/06/07 00:11:58;;;;;;;10.43;6.57;;;;;;;18.30;72.54;94668.41;4168143;28;20054;-58
2022/06/07 00:13:59;;;;;;;8.07;6.20;;;;;;;18.23;72.56;94672.94;4168378;28;20137;-57
2022/06/07 00:16:01;;;;;;;15.65;6.93;;;;;;;18.11;73.27;94675.41;4161332;28;20045;-56
2022/06/07 00:18:04;;;;;;;7.80;6.40;;;;;;;18.02;73.84;94673.97;4164310;28;20404;-56
2022/06/07 00:20:07;;;;;;;8.98;6.68;;;;;;;17.78;74.94;94670.09;4166910;28;20065;-56
2022/06/07 00:22:10;;;;;;;12.10;7.60;;;;;;;17.59;75.55;94667.25;4169104;28;20115;-56
2022/06/07 00:24:12;;;;;;;12.30;7.75;;;;;;;17.48;75.85;94665.19;4178029;28;20543;-57
2022/06/07 00:26:14;;;;;;;14.05;8.30;;;;;;;17.47;76.15;94666.22;4171842;28;20048;-56
2022/06/07 00:28:16;;;;;;;15.80;7.70;;;;;;;17.55;76.24;94668.69;4171475;28;20107;-55
2022/06/07 00:30:18;;;;;;;13.43;7.00;;;;;;;17.60;75.75;94662.75;4168420;28;20048;-54
2022/06/07 00:32:21;;;;;;;11.23;7.43;;;;;;;17.70;75.42;94657.88;4169762;28;20045;-56
2022/06/07 00:34:23;;;;;;;8.20;6.45;;;;;;;17.78;75.09;94662.94;4162557;28;20120;-54
2022/06/07 00:36:25;;;;;;;9.40;6.25;;;;;;;17.79;74.78;94659.28;4165725;28;20049;-55
2022/06/07 00:38:27;;;;;;;8.30;6.05;;;;;;;17.85;74.69;94655.03;4168214;28;20398;-52
2022/06/07 00:40:28;;;;;;;12.13;7.13;;;;;;;17.84;74.21;94657.91;4174876;28;20053;-55
2022/06/07 00:42:30;;;;;;;11.57;6.90;;;;;;;17.66;74.93;94666.41;4162731;28;20045;-56
2022/06/07 00:44:35;;;;;;;10.55;7.00;;;;;;;17.56;75.34;94658.88;4168240;28;20053;-57
2022/06/07 00:46:37;;;;;;;12.32;6.88;;;;;;;17.17;76.46;94669.22;4177419;28;20102;-57
2022/06/07 00:48:39;;;;;;;10.85;6.65;;;;;;;16.99;77.39;94671.59;4164798;28;20053;-55
2022/06/07 00:51:03;;;;;;;10.98;7.35;;;;;;;16.86;78.20;94666.28;4176010;28;20559;-56
2022/06/07 00:53:05;;;;;;;;;;;;;;;16.88;78.73;94669.53;4177971;28;20126;-56
2022/06/07 00:55:08;;;;;;;10.23;7.82;;;;;;;17.06;78.54;94672.47;4162735;28;19986;-55
2022/06/07 00:57:10;;;;;;;8.60;7.47;;;;;;;17.09;77.54;94668.59;4173766;28;20099;-54
2022/06/07 00:59:12;;;;;;;9.13;6.75;;;;;;;17.13;77.76;94672.47;4166731;28;20041;-59
2022/06/07 01:01:13;;;;;;;7.88;6.72;;;;;;;17.22;77.13;94673.91;4165342;28;20474;-58
2022/06/07 01:03:16;;;;;;;13.38;7.18;;;;;;;17.15;76.65;94668.59;4162021;28;20405;-57
2022/06/07 01:05:18;;;;;;;11.48;7.18;;;;;;;17.03;77.41;94666.72;4168907;28;20057;-56
2022/06/07 01:12:01;;;;;;;10.38;7.30;;;;;;;16.87;78.21;94671.38;4161215;28;20057;-56
2022/06/07 01:14:02;;;;;;;11.25;7.43;;;;;;;16.94;78.78;94663.47;4169545;28;20049;-58
2022/06/07 01:16:07;;;;;;;9.27;7.38;;;;;;;16.94;78.47;94671.41;4172120;28;20040;-56
2022/06/07 01:18:08;;;;;;;10.65;7.30;;;;;;;17.02;77.89;94663.28;4161723;28;20045;-55
2022/06/07 01:20:11;;;;;;;9.70;7.38;;;;;;;17.01;77.70;94668.75;4160587;28;20053;-56
2022/06/07 01:22:13;;;;;;;10.25;7.30;;;;;;;17.12;77.99;94673.47;4174546;28;20045;-55
2022/06/07 01:24:16;;;;;;;9.10;7.10;;;;;;;17.28;77.66;94672.31;4167351;28;20622;-56
2022/06/07 01:26:17;;;;;;;8.57;6.93;;;;;;;17.38;76.87;94665.59;4159899;28;20037;-56
2022/06/07 01:28:19;;;;;;;8.60;6.63;;;;;;;17.51;76.35;94671.91;4170337;28;20056;-56
2022/06/07 01:30:21;;;;;;;12.77;6.55;;;;;;;17.61;75.77;94664.38;4168657;28;20045;-54
2022/06/07 01:32:24;;;;;;;7.40;6.50;;;;;;;17.67;75.40;94670.72;4166837;28;20057;-55
2022/06/07 01:34:26;;;;;;;10.52;6.55;;;;;;;17.80;74.83;94673.34;4170609;28;20111;-58
2022/06/07 01:36:28;;;;;;;9.43;7.00;;;;;;;17.94;74.15;94669.72;4177248;28;20599;-55
2022/06/07 01:38:32;;;;;;;7.43;6.38;;;;;;;18.04;73.58;94671.13;4174996;28;20290;-55
2022/06/07 01:43:01;;;;;;;8.27;5.78;;;;;;;18.23;72.96;94662.31;4163517;28;20071;-56
2022/06/07 01:45:03;;;;;;;13.93;6.90;;;;;;;18.26;72.57;94671.69;4175519;28;20053;-57
2022/06/07 01:47:07;;;;;;;7.10;5.97;;;;;;;18.30;72.57;94672.91;4167871;28;20054;-57
2022/06/07 01:49:09;;;;;;;9.20;6.43;;;;;;;18.35;72.37;94675.78;4163278;28;20433;-56
2022/06/07 01:51:11;;;;;;;11.77;6.28;;;;;;;18.41;71.83;94659.84;4165857;28;20057;-56
2022/06/07 01:53:12;;;;;;;7.43;6.30;;;;;;;18.49;71.66;94655.31;4173605;28;20049;-56
2022/06/07 01:55:14;;;;;;;11.55;5.68;;;;;;;18.54;71.23;94647.53;4159893;28;20045;-58
2022/06/07 01:57:15;;;;;;;8.48;5.68;;;;;;;18.55;71.03;94657.16;4170167;28;20052;-56
2022/06/07 01:59:18;;;;;;;10.88;6.13;;;;;;;18.50;71.36;94649.81;4164703;28;20112;-57
2022/06/07 02:01:19;;;;;;;12.02;5.68;;;;;;;18.55;71.50;94654.50;4171905;28;20126;-60
2022/06/07 02:03:21;;;;;;;8.95;6.20;;;;;;;18.57;70.95;94655.09;4160103;28;20100;-57
2022/06/07 02:05:23;;;;;;;8.63;5.63;;;;;;;18.61;71.08;94654.47;4160497;28;20447;-56
2022/06/07 02:07:25;;;;;;;7.88;6.20;;;;;;;18.61;70.75;94651.00;4160014;28;20056;-57
2022/06/07 02:09:26;;;;;;;17.20;6.13;;;;;;;18.50;71.21;94648.97;4160048;28;20053;-57
2022/06/07 02:11:28;;;;;;;9.35;5.97;;;;;;;18.47;71.35;94652.88;4160220;28;20045;-57
2022/06/07 02:13:30;;;;;;;7.38;6.50;;;;;;;18.51;71.37;94647.97;4158826;28;20057;-56
2022/06/07 02:15:31;;;;;;;8.75;5.85;;;;;;;18.47;71.26;94654.72;4162853;28;20640;-56
2022/06/07 02:17:33;;;;;;;10.50;6.15;;;;;;;18.42;71.57;94650.84;4167445;28;20040;-57
2022/06/07 02:19:35;;;;;;;8.32;5.85;;;;;;;18.35;71.89;94655.38;4170168;28;20046;-55
2022/06/07 02:21:38;;;;;;;10.15;6.00;;;;;;;18.28;71.90;94643.94;4172847;28;20203;-55
2022/06/07 02:23:40;;;;;;;10.82;5.80;;;;;;;18.24;71.87;94652.53;4162403;28;20107;-56
2022/06/07 02:25:44;;;;;;;6.93;6.17;;;;;;;18.27;72.27;94654.78;4161207;28;20057;-57
2022/06/07 02:27:46;;;;;;;;;;;;;;;18.25;72.30;94654.16;4173831;28;20697;-55
2022/06/07 02:29:50;;;;;;;10.50;6.00;;;;;;;18.27;72.36;94650.28;4167855;28;19983;-55
2022/06/07 02:32:15;;;;;;;8.77;6.60;;;;;;;18.29;72.13;94658.84;4168619;28;20098;-54
2022/06/07 02:34:18;;;;;;;7.25;6.55;;;;;;;18.23;72.15;94653.56;4160004;28;20053;-55
2022/06/07 02:36:19;;;;;;;9.40;6.13;;;;;;;18.22;72.52;94658.06;4167295;28;20049;-56
2022/06/07 02:38:21;;;;;;;8.93;5.72;;;;;;;18.21;72.40;94665.19;4166183;28;20481;-56
2022/06/07 02:40:23;;;;;;;11.65;6.32;;;;;;;18.25;72.41;94665.59;4169242;28;20551;-57
2022/06/07 02:42:27;;;;;;;8.65;5.90;;;;;;;18.29;72.21;94658.03;4166162;28;20057;-55
2022/06/07 02:44:29;;;;;;;12.30;6.63;;;;;;;18.24;72.26;94657.81;4172343;28;20378;-56
2022/06/07 02:46:30;;;;;;;10.77;6.40;;;;;;;18.24;72.18;94647.22;4168022;28;20085;-55
2022/06/07 02:48:32;;;;;;;10.13;5.82;;;;;;;18.31;71.82;94662.09;4162770;28;20060;-56
2022/06/07 02:50:34;;;;;;;8.32;6.25;;;;;;;18.30;71.68;94652.50;4158332;28;20130;-56
2022/06/07 02:52:35;;;;;;;8.73;6.13;;;;;;;18.36;71.82;94661.47;4162135;28;20054;-55
2022/06/07 02:54:37;;;;;;;7.82;5.85;;;;;;;18.32;71.55;94654.97;4163856;28;20591;-55
2022/06/07 02:56:39;;;;;;;9.30;6.05;;;;;;;18.33;71.44;94662.72;4176196;28;20051;-57
2022/06/07 02:58:41;;;;;;;9.85;6.65;;;;;;;18.27;71.69;94671.50;4173508;28;20083;-55
2022/06/07 03:00:43;;;;;;;9.30;6.70;;;;;;;18.09;71.99;94671.31;4161198;28;20095;-56
2022/06/07 03:02:45;;;;;;;10.85;6.07;;;;;;;17.89;72.69;94676.63;4161748;28;20136;-56
2022/06/07 03:04:47;;;;;;;8.73;6.30;;;;;;;17.71;73.30;94680.69;4161171;28;20132;-55
2022/06/07 03:06:48;;;;;;;10.88;6.32;;;;;;;17.59;73.89;94688.44;4159899;28;20119;-55
2022/06/07 03:08:50;;;;;;;8.60;6.30;;;;;;;17.53;73.74;94686.59;4161460;28;20518;-56
2022/06/07 03:10:52;;;;;;;7.60;5.72;;;;;;;17.50;74.10;94686.97;4168483;28;20045;-55
2022/06/07 03:12:54;;;;;;;8.57;5.97;;;;;;;17.52;73.86;94692.91;4163576;28;20049;-56
2022/06/07 03:14:55;;;;;;;12.70;6.38;;;;;;;17.52;73.76;94695.53;4167575;28;20063;-56
2022/06/07 03:16:57;;;;;;;8.15;6.70;;;;;;;17.37;74.22;94694.91;4159793;28;20132;-55
2022/06/07 03:19:00;;;;;;;11.52;6.82;;;;;;;17.08;74.55;94701.34;4162672;28;20056;-58
2022/06/07 03:21:02;;;;;;;12.20;6.70;;;;;;;16.99;75.48;94704.19;4166891;28;20060;-54
2022/06/07 03:23:04;;;;;;;9.32;6.65;;;;;;;16.83;75.84;94701.06;4175712;28;20454;-55
2022/06/07 03:25:07;;;;;;;9.95;6.25;;;;;;;16.71;75.60;94701.63;4164952;28;20061;-56
2022/06/07 03:27:10;;;;;;;9.52;5.97;;;;;;;16.56;76.65;94701.75;4172639;28;20065;-55
2022/06/07 03:29:11;;;;;;;8.93;7.50;;;;;;;16.52;76.46;94700.50;4160778;28;20425;-55
2022/06/07 03:31:15;;;;;;;19.45;9.48;;;;;;;16.51;77.30;94693.56;4173797;28;20559;-57
2022/06/07 03:33:17;;;;;;;14.43;8.73;;;;;;;16.57;77.60;94699.91;4160947;28;20053;-54
2022/06/07 03:35:19;;;;;;;13.05;9.80;;;;;;;16.74;77.37;94700.41;4172115;28;20076;-53
2022/06/07 03:37:20;;;;;;;14.90;9.48;;;;;;;16.97;76.85;94700.94;4159425;28;20493;-56
2022/06/07 03:39:22;;;;;;;12.93;8.43;;;;;;;17.22;75.63;94696.94;4168533;28;20053;-55
2022/06/07 03:41:26;;;;;;;10.65;7.50;;;;;;;17.45;74.52;94697.38;4175222;28;20530;-56
2022/06/07 03:43:27;;;;;;;14.48;8.18;;;;;;;17.64;73.53;94694.94;4175263;28;20111;-56
2022/06/07 03:45:29;;;;;;;14.65;7.72;;;;;;;17.80;72.91;94695.34;4173958;28;20045;-59
2022/06/07 03:47:32;;;;;;;12.05;7.10;;;;;;;17.94;72.07;94696.22;4172801;28;20107;-55
2022/06/07 03:49:34;;;;;;;11.33;6.87;;;;;;;17.99;71.54;94696.41;4163729;28;20045;-56
2022/06/07 03:51:36;;;;;;;9.15;6.78;;;;;;;18.06;71.69;94700.91;4166030;28;20739;-56
2022/06/07 03:53:38;;;;;;;11.18;6.68;;;;;;;18.17;71.13;94694.97;4165539;28;20054;-60
2022/06/07 03:55:44;;;;;;;11.20;8.32;;;;;;;18.21;71.08;94702.28;4171159;28;20052;-55
2022/06/07 03:57:46;;;;;;;12.95;8.48;;;;;;;18.24;71.20;94702.91;4159703;28;20054;-58
2022/06/07 03:59:48;;;;;;;12.90;8.32;;;;;;;18.23;70.63;94703.94;4164550;28;20083;-58
2022/06/07 04:01:50;;;;;;;11.65;7.97;;;;;;;17.94;71.86;94705.97;4178157;28;20135;-55
2022/06/07 04:03:55;;;;;;;14.93;8.13;;;;;;;17.73;72.53;94704.34;4168790;28;20049;-54
2022/06/07 04:05:57;;;;;;;10.30;8.15;;;;;;;17.69;72.89;94703.91;4161483;28;20262;-54
2022/06/07 04:08:11;;;;;;;15.30;9.38;;;;;;;17.52;73.94;94703.50;4177777;28;20059;-54
2022/06/07 04:10:12;;;;;;;13.30;9.48;;;;;;;17.34;74.33;94705.91;4172999;28;20088;-55
2022/06/07 04:12:16;;;;;;;13.93;8.82;;;;;;;17.02;75.53;94705.63;4161591;28;20103;-57
2022/06/07 04:14:17;;;;;;;14.65;9.60;;;;;;;17.11;76.15;94696.47;4174439;28;20409;-59
2022/06/07 04:16:23;;;;;;;16.63;9.65;;;;;;;16.93;75.82;94710.28;4162222;28;20072;-55
2022/06/07 04:18:25;;;;;;;14.38;10.55;;;;;;;16.57;77.38;94708.66;4178363;28;20052;-56
2022/06/07 04:20:27;;;;;;;17.40;10.02;;;;;;;16.52;77.59;94705.78;4178677;28;20378;-51
2022/06/07 04:22:28;;;;;;;16.27;10.13;;;;;;;16.56;77.91;94709.69;4164874;28;20692;-48
2022/06/07 04:24:31;;;;;;;14.93;9.30;;;;;;;16.65;78.02;94709.50;4178085;28;20041;-52
2022/06/07 04:26:33;;;;;;;14.65;9.23;;;;;;;16.86;77.46;94713.91;4170410;28;20092;-49
2022/06/07 04:28:35;;;;;;;14.23;9.32;;;;;;;17.02;76.36;94716.22;4161503;28;20057;-53
2022/06/07 04:30:37;;;;;;;15.30;9.30;;;;;;;17.10;76.34;94717.84;4173992;28;20107;-52
2022/06/07 04:32:45;;;;;;;13.02;9.27;;;;;;;17.09;75.87;94714.38;4168729;28;20061;-50
2022/06/07 04:34:47;;;;;;;13.45;9.07;;;;;;;17.12;76.09;94719.31;4175013;28;20063;-49
2022/06/07 04:36:49;;;;;;;13.70;9.90;;;;;;;17.15;76.21;94712.78;4165773;28;20045;-50
2022/06/07 04:38:52;;;;;;;15.15;9.52;;;;;;;17.28;75.86;94706.72;4178314;28;20060;-50
2022/06/07 04:40:54;;;;;;;13.13;8.82;;;;;;;17.16;75.32;94715.25;4178070;28;20057;-48
2022/06/07 04:42:56;;;;;;;17.13;10.15;;;;;;;17.13;75.90;94717.47;4173628;28;20119;-47
2022/06/07 04:44:58;;;;;;;18.58;11.30;;;;;;;16.80;77.13;94718.16;4168254;28;20166;-48
2022/06/07 04:46:59;;;;;;;18.52;11.85;;;;;;;16.81;77.64;94711.84;4175621;28;20390;-48
2022/06/07 04:49:01;;;;;;;21.88;12.45;;;;;;;16.99;77.73;94713.94;4167177;28;20476;-47
2022/06/07 04:51:07;;;;;;;20.75;11.13;;;;;;;17.20;76.73;94710.34;4174324;28;20472;-51
2022/06/07 04:53:09;;;;;;;19.77;11.75;;;;;;;17.41;75.88;94719.97;4171011;28;20045;-53
2022/06/07 04:55:12;;;;;;;17.83;11.35;;;;;;;17.48;74.68;94712.84;4172498;28;20114;-50
2022/06/07 04:57:13;;;;;;;19.33;11.50;;;;;;;17.18;76.16;94717.69;4163233;28;20054;-52
2022/06/07 04:59:15;;;;;;;25.10;12.43;;;;;;;17.04;76.51;94724.78;4168483;28;20053;-50
2022/06/07 05:01:22;;;;;;;20.45;13.13;;;;;;;16.95;77.02;94726.78;4176207;28;20057;-48
2022/06/07 05:03:24;;;;;;;15.50;12.20;;;;;;;16.77;77.93;94732.53;4167304;28;20077;-48
2022/06/07 05:05:26;;;;;;;15.68;11.98;;;;;;;16.48;79.20;94732.81;4168472;28;20130;-49
2022/06/07 05:07:28;;;;;;;17.85;12.45;;;;;;;16.45;80.00;94727.91;4168652;28;20064;-55
2022/06/07 05:09:30;;;;;;;21.27;12.77;;;;;;;16.32;80.04;94736.56;4171933;28;20427;-52
2022/06/07 05:11:31;;;;;;;21.48;13.15;;;;;;;16.30;80.02;94733.31;4164531;28;20110;-48
2022/06/07 05:13:33;;;;;;;23.48;13.13;;;;;;;16.10;81.45;94730.53;4177283;28;20222;-48
2022/06/07 05:15:35;;;;;;;20.15;13.52;;;;;;;16.15;81.27;94728.97;4176616;28;20126;-54
2022/06/07 05:17:36;;;;;;;26.63;14.27;;;;;;;16.29;81.20;94732.50;4163095;28;20103;-50
2022/06/07 05:19:38;;;;;;;22.45;16.13;;;;;;;16.50;80.17;94734.25;4169855;28;20049;-50
2022/06/07 05:21:41;;;;;;;20.33;14.48;;;;;;;16.77;80.08;94742.31;4171649;28;20146;-51
2022/06/07 05:23:43;;;;;;;26.63;15.32;;;;;;;17.02;78.44;94736.56;4177241;28;20057;-50
2022/06/07 05:26:20;;;;;;;29.92;15.57;;;;;;;17.31;77.61;94741.53;4161109;28;20060;-49
2022/06/07 05:28:22;;;;;;;25.52;14.07;;;;;;;17.58;76.16;94737.13;4169301;28;20056;-48
2022/06/07 05:30:24;;;;;;;19.35;15.13;;;;;;;17.74;75.48;94743.06;4175726;28;20049;-49
2022/06/07 05:32:26;;;;;;;21.52;14.40;;;;;;;17.85;74.49;94734.53;4163274;28;20049;-52
2022/06/07 05:34:28;;;;;;;29.50;15.10;;;;;;;17.83;74.52;94741.03;4174349;28;20049;-52
2022/06/07 05:36:29;;;;;;;28.20;14.55;;;;;;;17.93;74.46;94736.97;4173981;28;20540;-51
2022/06/07 05:38:31;;;;;;;20.35;14.00;;;;;;;18.13;73.70;94731.69;4168367;28;20049;-52
2022/06/07 05:40:33;;;;;;;18.10;13.40;;;;;;;18.24;73.33;94732.91;4160502;28;20045;-51
2022/06/07 05:42:34;;;;;;;20.17;13.55;;;;;;;18.39;72.54;94736.16;4174391;28;20118;-52
2022/06/07 05:44:42;;;;;;;23.02;13.30;;;;;;;18.50;72.00;94736.53;4159263;28;20107;-51
2022/06/07 05:46:44;;;;;;;18.85;13.70;;;;;;;18.47;71.63;94736.94;4169373;28;20128;-50
2022/06/07 05:48:45;;;;;;;25.35;13.30;;;;;;;18.44;71.82;94740.84;4176670;28;20049;-49
2022/06/07 05:50:54;;;;;;;22.30;13.27;;;;;;;18.28;72.13;94736.75;4176518;28;20061;-51
2022/06/07 05:52:56;;;;;;;16.27;12.10;;;;;;;18.09;72.84;94741.06;4162634;28;20060;-50
2022/06/07 05:54:58;;;;;;;21.50;12.27;;;;;;;18.13;72.97;94738.81;4168827;28;20097;-48
2022/06/07 05:57:00;;;;;;;22.38;13.10;;;;;;;18.14;72.78;94735.16;4166796;28;20041;-51
2022/06/07 05:59:05;;;;;;;19.80;12.30;;;;;;;18.50;72.47;94740.00;4173135;28;20095;-52
2022/06/07 06:01:07;;;;;;;18.85;12.63;;;;;;;18.71;71.18;94738.13;4167455;28;20057;-52
2022/06/07 06:03:09;;;;;;;20.33;13.02;;;;;;;18.82;71.15;94735.66;4176359;28;20493;-53
2022/06/07 06:05:11;;;;;;;18.17;13.18;;;;;;;18.75;70.95;94729.53;4170219;28;20133;-51
2022/06/07 06:07:13;;;;;;;20.50;12.73;;;;;;;18.88;70.96;94731.34;4160379;28;20410;-50
2022/06/07 06:11:36;;;;;;;19.05;14.65;;;;;;;18.91;69.76;94730.13;4176446;28;20521;-52
2022/06/07 06:13:37;;;;;;;23.95;15.48;;;;;;;18.75;70.45;94731.38;4177364;28;20053;-52
2022/06/07 06:15:39;;;;;;;22.00;13.25;;;;;;;19.01;70.66;94722.53;4166010;28;20083;-53
2022/06/07 06:17:41;;;;;;;20.38;14.70;;;;;;;19.37;69.18;94724.59;4171611;28;20145;-52
2022/06/07 06:19:43;;;;;;;22.35;15.25;;;;;;;19.63;68.18;94730.78;4169690;28;20056;-51
2022/06/07 06:21:44;;;;;;;19.25;14.27;;;;;;;19.93;67.87;94728.34;4176418;28;20045;-53
2022/06/07 06:23:46;;;;;;;16.52;13.88;;;;;;;19.85;66.49;94728.63;4176744;28;20466;-52
2022/06/07 06:25:48;;;;;;;19.17;14.88;;;;;;;19.46;67.43;94719.84;4161648;28;20089;-55
2022/06/07 06:27:50;;;;;;;21.05;13.70;;;;;;;19.17;68.97;94726.56;4172118;28;20103;-50
2022/06/07 06:29:52;;;;;;;25.35;14.40;;;;;;;19.08;69.22;94720.66;4159229;28;20052;-52
2022/06/07 06:31:54;;;;;;;26.63;15.10;;;;;;;19.27;69.68;94721.56;4176547;28;20486;-49
2022/06/07 06:33:56;;;;;;;22.25;14.25;;;;;;;19.53;69.25;94717.16;4174070;28;20079;-53
2022/06/07 06:35:58;;;;;;;18.70;13.75;;;;;;;19.80;68.35;94718.63;4166665;28;20076;-54
2022/06/07 06:37:59;;;;;;;28.83;15.40;;;;;;;20.11;66.68;94716.16;4160090;28;20041;-49
2022/06/07 06:40:01;;;;;;;20.73;14.43;;;;;;;20.22;65.98;94712.78;4172940;28;20119;-50
2022/06/07 06:42:03;;;;;;;18.35;15.18;;;;;;;20.27;66.08;94715.59;4164368;28;20071;-50
2022/06/07 06:44:05;;;;;;;18.98;14.30;;;;;;;20.32;65.74;94712.28;4168792;28;20052;-52
2022/06/07 06:46:10;;;;;;;24.45;13.82;;;;;;;19.97;66.28;94718.09;4160818;28;20053;-52
2022/06/07 06:48:12;;;;;;;21.70;14.20;;;;;;;19.59;68.12;94713.63;4166654;28;20621;-51
2022/06/07 06:50:14;;;;;;;24.67;13.57;;;;;;;19.67;68.16;94716.03;4170376;28;20185;-53
2022/06/07 06:52:15;;;;;;;15.57;12.60;;;;;;;19.55;68.87;94715.09;4163178;28;20410;-53
2022/06/07 06:54:17;;;;;;;20.83;14.75;;;;;;;19.73;67.71;94709.91;4162046;28;20103;-53
2022/06/07 06:56:21;;;;;;;23.95;14.55;;;;;;;19.76;67.97;94703.34;4160741;28;20049;-52
2022/06/07 06:58:25;;;;;;;19.08;14.98;;;;;;;19.95;67.41;94706.88;4159977;28;20053;-52
2022/06/07 07:00:27;;;;;;;24.40;13.75;;;;;;;20.05;66.86;94694.72;4166777;28;20061;-48
2022/06/07 07:02:29;;;;;;;19.50;15.38;;;;;;;19.98;66.85;94701.94;4159823;28;20076;-52
2022/06/07 07:04:30;;;;;;;20.33;14.07;;;;;;;20.09;67.08;94702.25;4159858;28;20053;-48
2022/06/07 07:06:32;;;;;;;24.90;13.63;;;;;;;20.27;67.20;94704.16;4171502;28;20110;-51
2022/06/07 07:08:38;;;;;;;22.05;13.63;;;;;;;20.47;66.32;94699.44;4168945;28;20155;-53
2022/06/07 07:10:40;;;;;;;22.13;13.73;;;;;;;20.64;65.42;94697.84;4167890;28;20065;-49
2022/06/07 07:12:42;;;;;;;23.33;15.30;;;;;;;20.83;64.65;94692.53;4168772;28;20088;-49
2022/06/07 07:14:43;;;;;;;26.30;15.68;;;;;;;20.75;65.45;94695.50;4166513;28;20487;-49
2022/06/07 07:16:47;;;;;;;21.55;16.10;;;;;;;20.88;64.31;94691.88;4163793;28;20494;-52
2022/06/07 07:18:49;;;;;;;25.35;15.82;;;;;;;20.83;64.30;94693.34;4163969;28;20426;-51
2022/06/07 07:20:52;;;;;;;22.88;15.35;;;;;;;20.74;64.75;94693.88;4159260;28;20107;-52
2022/06/07 07:22:54;;;;;;;26.98;15.13;;;;;;;20.70;65.08;94693.50;4175655;28;20144;-50
2022/06/07 07:24:56;;;;;;;21.40;16.38;;;;;;;20.52;65.55;94690.78;4172706;28;20059;-50
2022/06/07 07:26:58;;;;;;;21.90;16.05;;;;;;;20.75;65.30;94695.50;4175374;28;20049;-51
2022/06/07 07:29:00;;;;;;;22.35;14.95;;;;;;;20.93;64.31;94690.16;4160771;28;20053;-47
2022/06/07 07:31:05;;;;;;;28.92;15.68;;;;;;;20.84;64.13;94687.00;4167975;28;20556;-50
2022/06/07 07:33:07;;;;;;;20.08;15.20;;;;;;;20.81;64.41;94684.75;4175145;28;20417;-53
2022/06/07 07:35:09;;;;;;;22.20;15.20;;;;;;;20.93;63.96;94682.19;4161228;28;20103;-47
2022/06/07 07:37:11;;;;;;;19.67;14.20;;;;;;;21.02;64.30;94685.34;4170847;28;20107;-48
2022/06/07 07:39:13;;;;;;;21.42;15.52;;;;;;;21.28;63.98;94681.53;4158756;28;20053;-48
2022/06/07 07:41:24;;;;;;;27.35;15.88;;;;;;;21.33;62.95;94678.16;4158598;28;20505;-52
2022/06/07 07:43:25;;;;;;;18.27;14.73;;;;;;;21.39;63.28;94680.75;4168468;28;20371;-51
2022/06/07 07:45:28;;;;;;;18.88;14.82;;;;;;;21.45;62.83;94673.72;4161875;28;20057;-52
2022/06/07 07:47:30;;;;;;;22.15;13.32;;;;;;;21.78;62.14;94677.75;4173891;28;20083;-54
2022/06/07 07:49:32;;;;;;;18.05;14.07;;;;;;;21.88;61.64;94664.66;4175016;28;20078;-53
2022/06/07 07:51:39;;;;;;;20.00;12.90;;;;;;;21.66;61.98;94665.22;4175439;28;20053;-53
2022/06/07 07:53:42;;;;;;;22.08;13.85;;;;;;;21.67;62.60;94655.34;4164658;28;20054;-53
2022/06/07 07:55:47;;;;;;;14.45;11.48;;;;;;;21.60;61.62;94660.78;4162101;28;20053;-53
2022/06/07 07:57:49;;;;;;;13.25;10.63;;;;;;;21.81;61.23;94655.94;4162259;28;20057;-52
2022/06/07 07:59:50;;;;;;;19.08;11.82;;;;;;;21.89;61.13;94652.94;4173760;28;20053;-52
2022/06/07 08:01:52;;;;;;;14.70;10.93;;;;;;;22.11;61.02;94650.50;4175930;28;20114;-52
2022/06/07 08:03:57;;;;;;;14.60;11.05;;;;;;;22.12;59.86;94646.00;4164101;28;20053;-50
2022/06/07 08:05:59;;;;;;;17.45;11.23;;;;;;;22.23;59.66;94647.91;4172645;28;20049;-52
2022/06/07 08:08:01;;;;;;;13.65;9.98;;;;;;;22.37;59.75;94638.59;4174772;28;20107;-50
2022/06/07 08:10:04;;;;;;;14.48;9.25;;;;;;;22.61;58.91;94639.38;4174361;28;20106;-53
2022/06/07 08:12:06;;;;;;;15.35;10.82;;;;;;;22.41;58.62;94638.94;4175038;28;20108;-51
2022/06/07 08:14:12;;;;;;;12.02;7.78;;;;;;;22.13;58.14;94632.41;4164899;28;20489;-52
2022/06/07 08:16:14;;;;;;;11.63;6.53;;;;;;;21.93;56.61;94627.44;4171087;28;20146;-53
2022/06/07 08:18:16;;;;;;;6.32;5.60;;;;;;;22.17;56.32;94628.25;4157911;28;20049;-54
2022/06/07 08:20:19;;;;;;;9.25;5.25;;;;;;;22.47;55.49;94624.66;4164131;28;20053;-52
2022/06/07 08:22:21;;;;;;;10.95;5.40;;;;;;;22.70;54.33;94629.94;4168513;28;20041;-58
2022/06/07 08:24:23;;;;;;;10.10;5.43;;;;;;;22.86;53.55;94624.91;4163634;28;20121;-53
2022/06/07 08:26:26;;;;;;;8.02;5.15;;;;;;;22.92;53.78;94625.81;4158281;28;20072;-52
2022/06/07 08:28:28;;;;;;;8.63;4.60;;;;;;;22.89;52.39;94619.91;4168191;28;20131;-50
2022/06/07 08:30:29;;;;;;;6.40;4.30;;;;;;;23.02;51.21;94615.38;4173284;28;20127;-50
2022/06/07 08:32:32;;;;;;;5.55;4.53;;;;;;;22.77;50.98;94621.78;4166068;28;20050;-51
2022/06/07 08:39:15;;;;;;;8.23;4.70;;;;;;;23.29;51.38;94612.91;4158263;28;20049;-53
2022/06/07 08:41:29;;;;;;;9.85;5.10;;;;;;;23.55;51.41;94611.47;4166666;28;20084;-50
2022/06/07 08:43:31;;;;;;;6.22;3.75;;;;;;;23.78;50.52;94607.88;4173719;28;20067;-53
2022/06/07 08:45:36;;;;;;;7.72;4.00;;;;;;;23.99;49.93;94602.84;4162621;28;20148;-55
2022/06/07 08:47:43;;;;;;;5.20;3.65;;;;;;;24.20;49.06;94599.41;4160543;28;20080;-53
2022/06/07 08:49:45;;;;;;;5.25;3.78;;;;;;;24.27;47.37;94599.25;4161529;28;20058;-55
2022/06/07 08:52:20;;;;;;;4.55;2.88;;;;;;;24.39;45.07;94607.94;4161587;28;20108;-54
2022/06/07 08:54:32;;;;;;;5.25;3.05;;;;;;;24.20;44.39;94602.09;4162209;28;20049;-52
2022/06/07 08:56:34;;;;;;;4.63;3.20;;;;;;;24.32;44.72;94593.94;4169328;28;20040;-53
2022/06/07 08:58:39;;;;;;;12.15;3.65;;;;;;;24.00;44.78;94591.88;4169715;28;20083;-51
2022/06/07 09:00:46;;;;;;;5.80;3.50;;;;;;;23.88;44.90;94588.50;4169046;28;20060;-52
2022/06/07 09:03:22;;;;;;;10.63;5.53;;;;;;;23.84;44.88;94585.50;4161843;28;20049;-51
2022/06/07 09:05:29;;;;;;;15.25;3.80;;;;;;;23.95;44.06;94586.47;4161300;28;20120;-52
2022/06/07 09:07:31;;;;;;;10.40;3.38;;;;;;;24.17;44.60;94577.69;4161633;28;20177;-52
2022/06/07 09:12:10;;;;;;;5.60;3.63;;;;;;;24.25;43.34;94579.94;4161057;28;20053;-54
2022/06/07 09:14:44;;;;;;;13.23;4.20;;;;;;;23.92;44.24;94576.28;4172646;28;20053;-51
2022/06/07 09:16:46;;;;;;;13.13;4.63;;;;;;;23.70;44.58;94568.13;4163978;28;20064;-52
2022/06/07 09:18:50;;;;;;;29.27;4.80;;;;;;;23.76;45.47;94575.22;4170116;28;20049;-53
2022/06/07 09:20:56;;;;;;;10.40;4.00;;;;;;;23.87;45.36;94573.50;4168201;28;20045;-52
2022/06/07 09:23:01;;;;;;;8.55;3.92;;;;;;;24.11;45.06;94572.25;4166749;28;20059;-56
2022/06/07 09:25:06;;;;;;;7.55;3.75;;;;;;;24.16;43.60;94568.03;4166852;28;20048;-55
2022/06/07 09:27:15;;;;;;;9.48;4.53;;;;;;;24.34;44.49;94565.06;4159570;28;20053;-56
2022/06/07 09:29:22;;;;;;;10.68;4.10;;;;;;;24.25;42.41;94558.53;4161124;28;20170;-55
2022/06/07 09:31:26;;;;;;;5.20;3.90;;;;;;;24.14;43.90;94562.13;4173441;28;20049;-55
2022/06/07 09:33:30;;;;;;;11.10;4.10;;;;;;;24.43;44.92;94560.06;4163277;28;20503;-57
2022/06/07 09:35:38;;;;;;;5.30;3.60;;;;;;;24.60;42.72;94554.69;4171453;28;20469;-54
2022/06/07 09:37:47;;;;;;;8.63;4.15;;;;;;;24.37;42.33;94559.22;4169974;28;20394;-56
2022/06/07 09:39:53;;;;;;;10.27;4.63;;;;;;;24.41;43.06;94554.16;4163348;28;20145;-56
2022/06/07 09:42:09;;;;;;;6.00;3.70;;;;;;;24.65;43.03;94554.75;4170499;28;20056;-60
2022/06/07 09:44:22;;;;;;;6.85;3.70;;;;;;;24.81;42.51;94553.06;4174200;28;20130;-56
2022/06/07 09:46:25;;;;;;;10.02;4.07;;;;;;;25.03;42.75;94553.00;4163588;28;20087;-56
2022/06/07 09:48:34;;;;;;;6.25;4.18;;;;;;;25.27;41.96;94543.63;4177643;28;20514;-58
2022/06/07 09:50:37;;;;;;;6.15;4.00;;;;;;;25.34;42.26;94546.91;4174533;28;20053;-56